sensor_id;sensor_type;location;lat;lon;timestamp;temperature;humidity
2647;DHT22;1333;50.958;6.770;2024-03-23T00:55:40;9.50;99.90
2647;DHT22;1333;50.958;6.770;2024-03-23T00:58:06;9.50;99.90
2647;DHT22;1333;50.958;6.770;2024-03-23T01:00:31;9.60;99.90
2647;DHT22;1333;50.958;6.770;2024-03-23T01:02:57;9.50;99.90
2647;DHT22;1333;50.958;6.770;2024-03-23T01:05:22;9.50;99.90
2647;DHT22;1333;50.958;6.770;2024-03-23T01:07:48;9.50;99.90
2647;DHT22;1333;50.958;6.770;2024-03-23T01:10:13;9.40;99.90
2647;DHT22;1333;50.958;6.770;2024-03-23T01:12:39;9.40;99.90
2647;DHT22;1333;50.958;6.770;2024-03-23T01:15:05;9.40;99.90
2647;DHT22;1333;50.958;6.770;2024-03-23T01:17:30;9.30;99.90
2647;DHT22;1333;50.958;6.770;2024-03-23T01:19:56;9.30;99.90
2647;DHT22;1333;50.958;6.770;2024-03-23T01:22:21;9.20;99.90
2647;DHT22;1333;50.958;6.770;2024-03-23T01:24:47;9.20;99.90
2647;DHT22;1333;50.958;6.770;2024-03-23T01:27:12;9.10;99.90
2647;DHT22;1333;50.958;6.770;2024-03-23T01:29:38;9.10;99.90
2647;DHT22;1333;50.958;6.770;2024-03-23T01:32:04;9.10;99.90
2647;DHT22;1333;50.958;6.770;2024-03-23T01:34:30;9.10;99.90
2647;DHT22;1333;50.958;6.770;2024-03-23T01:36:55;9.10;99.90
2647;DHT22;1333;50.958;6.770;2024-03-23T01:39:21;9.00;99.90
2647;DHT22;1333;50.958;6.770;2024-03-23T01:41:46;8.90;99.90
2647;DHT22;1333;50.958;6.770;2024-03-23T01:44:12;8.90;99.90
2647;DHT22;1333;50.958;6.770;2024-03-23T01:46:38;8.90;99.90
2647;DHT22;1333;50.958;6.770;2024-03-23T01:49:04;8.90;99.90
2647;DHT22;1333;50.958;6.770;2024-03-23T01:51:30;8.90;99.90
2647;DHT22;1333;50.958;6.770;2024-03-23T01:53:57;8.90;99.90
2647;DHT22;1333;50.958;6.770;2024-03-23T01:56:26;8.90;99.90
2647;DHT22;1333;50.958;6.770;2024-03-23T01:58:51;8.90;99.90
2647;DHT22;1333;50.958;6.770;2024-03-23T02:01:17;8.90;99.90
2647;DHT22;1333;50.958;6.770;2024-03-23T02:03:42;8.80;99.90
2647;DHT22;1333;50.958;6.770;2024-03-23T02:06:08;8.80;99.90
2647;DHT22;1333;50.958;6.770;2024-03-23T02:08:34;8.80;99.90
2647;DHT22;1333;50.958;6.770;2024-03-23T02:11:00;8.80;99.90
2647;DHT22;1333;50.958;6.770;2024-03-23T02:13:25;8.80;99.90
2647;DHT22;1333;50.958;6.770;2024-03-23T02:15:51;8.90;99.90
2647;DHT22;1333;50.958;6.770;2024-03-23T02:18:16;8.90;99.90
2647;DHT22;1333;50.958;6.770;2024-03-23T02:20:42;8.90;99.90
2647;DHT22;1333;50.958;6.770;2024-03-23T02:23:17;8.80;99.90
2647;DHT22;1333;50.958;6.770;2024-03-23T02:25:46;8.70;99.90
2647;DHT22;1333;50.958;6.770;2024-03-23T02:28:11;8.50;99.90
2647;DHT22;1333;50.958;6.770;2024-03-23T02:30:38;8.30;99.90
2647;DHT22;1333;50.958;6.770;2024-03-23T02:33:04;8.20;99.90
2647;DHT22;1333;50.958;6.770;2024-03-23T02:35:30;8.10;99.90
2647;DHT22;1333;50.958;6.770;2024-03-23T02:37:55;8.00;99.90
2647;DHT22;1333;50.958;6.770;2024-03-23T02:40:23;8.00;99.90
2647;DHT22;1333;50.958;6.770;2024-03-23T02:42:48;7.90;99.90
2647;DHT22;1333;50.958;6.770;2024-03-23T02:45:14;7.80;99.90
2647;DHT22;1333;50.958;6.770;2024-03-23T02:47:40;7.80;99.90
2647;DHT22;1333;50.958;6.770;2024-03-23T02:50:05;7.70;99.90
2647;DHT22;1333;50.958;6.770;2024-03-23T02:52:31;7.70;99.90
2647;DHT22;1333;50.958;6.770;2024-03-23T02:54:57;7.60;99.90
2647;DHT22;1333;50.958;6.770;2024-03-23T02:57:23;7.60;99.90
2647;DHT22;1333;50.958;6.770;2024-03-23T02:59:48;7.60;99.90
2647;DHT22;1333;50.958;6.770;2024-03-23T03:02:15;7.60;99.90
2647;DHT22;1333;50.958;6.770;2024-03-23T03:04:41;7.60;99.90
2647;DHT22;1333;50.958;6.770;2024-03-23T03:07:06;7.60;99.90
2647;DHT22;1333;50.958;6.770;2024-03-23T03:09:32;7.50;99.90
2647;DHT22;1333;50.958;6.770;2024-03-23T03:11:58;7.60;99.90
2647;DHT22;1333;50.958;6.770;2024-03-23T03:14:24;7.50;99.90
2647;DHT22;1333;50.958;6.770;2024-03-23T03:16:49;7.50;99.90
2647;DHT22;1333;50.958;6.770;2024-03-23T03:19:15;7.50;99.90
2647;DHT22;1333;50.958;6.770;2024-03-23T03:21:42;7.60;99.90
2647;DHT22;1333;50.958;6.770;2024-03-23T03:24:07;7.50;99.90
2647;DHT22;1333;50.958;6.770;2024-03-23T03:26:33;7.50;99.90
2647;DHT22;1333;50.958;6.770;2024-03-23T03:28:58;7.50;99.90
2647;DHT22;1333;50.958;6.770;2024-03-23T03:31:24;7.50;99.90
2647;DHT22;1333;50.958;6.770;2024-03-23T03:33:50;7.50;99.90
2647;DHT22;1333;50.958;6.770;2024-03-23T03:36:16;7.50;99.90
2647;DHT22;1333;50.958;6.770;2024-03-23T03:38:42;7.50;99.90
2647;DHT22;1333;50.958;6.770;2024-03-23T03:41:07;7.50;99.90
2647;DHT22;1333;50.958;6.770;2024-03-23T03:43:33;7.50;99.90
2647;DHT22;1333;50.958;6.770;2024-03-23T03:46:00;7.50;99.90
2647;DHT22;1333;50.958;6.770;2024-03-23T03:48:26;7.50;99.90
2647;DHT22;1333;50.958;6.770;2024-03-23T03:50:52;7.50;99.90
2647;DHT22;1333;50.958;6.770;2024-03-23T03:53:18;7.50;99.90
2647;DHT22;1333;50.958;6.770;2024-03-23T03:55:43;7.50;99.90
2647;DHT22;1333;50.958;6.770;2024-03-23T03:58:09;7.50;99.90
2647;DHT22;1333;50.958;6.770;2024-03-23T04:00:34;7.40;99.90
2647;DHT22;1333;50.958;6.770;2024-03-23T04:03:01;7.50;99.90
2647;DHT22;1333;50.958;6.770;2024-03-23T04:05:26;7.50;99.90
2647;DHT22;1333;50.958;6.770;2024-03-23T04:07:52;7.40;99.90
2647;DHT22;1333;50.958;6.770;2024-03-23T04:10:18;7.40;99.90
2647;DHT22;1333;50.958;6.770;2024-03-23T04:12:44;7.40;99.90
2647;DHT22;1333;50.958;6.770;2024-03-23T04:15:10;7.40;99.90
2647;DHT22;1333;50.958;6.770;2024-03-23T04:17:36;7.50;99.90
2647;DHT22;1333;50.958;6.770;2024-03-23T04:20:02;7.40;99.90
2647;DHT22;1333;50.958;6.770;2024-03-23T04:22:29;7.40;99.90
2647;DHT22;1333;50.958;6.770;2024-03-23T04:24:56;7.40;99.90
2647;DHT22;1333;50.958;6.770;2024-03-23T04:27:22;7.40;99.90
2647;DHT22;1333;50.958;6.770;2024-03-23T04:29:49;7.30;99.90
2647;DHT22;1333;50.958;6.770;2024-03-23T04:32:15;7.20;99.90
2647;DHT22;1333;50.958;6.770;2024-03-23T04:34:42;7.10;99.90
2647;DHT22;1333;50.958;6.770;2024-03-23T04:37:07;7.00;99.90
2647;DHT22;1333;50.958;6.770;2024-03-23T04:39:33;6.90;99.90
2647;DHT22;1333;50.958;6.770;2024-03-23T04:41:59;6.70;99.90
2647;DHT22;1333;50.958;6.770;2024-03-23T04:44:24;6.60;99.90
2647;DHT22;1333;50.958;6.770;2024-03-23T04:46:50;6.60;99.90
2647;DHT22;1333;50.958;6.770;2024-03-23T04:49:15;6.40;99.90
2647;DHT22;1333;50.958;6.770;2024-03-23T04:51:41;6.40;99.90
2647;DHT22;1333;50.958;6.770;2024-03-23T04:54:14;6.30;99.90
2647;DHT22;1333;50.958;6.770;2024-03-23T04:56:40;6.30;99.90
2647;DHT22;1333;50.958;6.770;2024-03-23T04:59:05;6.20;99.90
2647;DHT22;1333;50.958;6.770;2024-03-23T05:01:31;6.20;99.90
2647;DHT22;1333;50.958;6.770;2024-03-23T05:03:57;6.10;99.90
2647;DHT22;1333;50.958;6.770;2024-03-23T05:06:23;6.10;99.90
2647;DHT22;1333;50.958;6.770;2024-03-23T05:08:49;6.10;99.90
2647;DHT22;1333;50.958;6.770;2024-03-23T05:11:15;6.20;99.90
2647;DHT22;1333;50.958;6.770;2024-03-23T05:13:41;6.20;99.90
2647;DHT22;1333;50.958;6.770;2024-03-23T05:16:06;6.20;99.90
2647;DHT22;1333;50.958;6.770;2024-03-23T05:18:32;6.30;99.90
2647;DHT22;1333;50.958;6.770;2024-03-23T05:20:58;6.30;99.90
2647;DHT22;1333;50.958;6.770;2024-03-23T05:23:24;6.30;99.90
2647;DHT22;1333;50.958;6.770;2024-03-23T05:25:51;6.30;99.90
2647;DHT22;1333;50.958;6.770;2024-03-23T05:28:17;6.20;99.90
2647;DHT22;1333;50.958;6.770;2024-03-23T05:30:43;6.30;99.90
2647;DHT22;1333;50.958;6.770;2024-03-23T05:33:08;6.30;99.90
2647;DHT22;1333;50.958;6.770;2024-03-23T05:35:34;6.30;99.90
2647;DHT22;1333;50.958;6.770;2024-03-23T05:37:59;6.20;99.90
2647;DHT22;1333;50.958;6.770;2024-03-23T05:40:26;6.10;99.90
2647;DHT22;1333;50.958;6.770;2024-03-23T05:42:52;6.10;99.90
2647;DHT22;1333;50.958;6.770;2024-03-23T05:45:21;6.00;99.90
2647;DHT22;1333;50.958;6.770;2024-03-23T05:47:48;6.00;99.90
2647;DHT22;1333;50.958;6.770;2024-03-23T05:50:13;5.90;99.90
2647;DHT22;1333;50.958;6.770;2024-03-23T05:52:39;5.90;99.90
2647;DHT22;1333;50.958;6.770;2024-03-23T05:55:06;5.80;99.90
2647;DHT22;1333;50.958;6.770;2024-03-23T05:57:31;5.80;99.90
2647;DHT22;1333;50.958;6.770;2024-03-23T05:59:57;5.80;99.90
2647;DHT22;1333;50.958;6.770;2024-03-23T06:02:24;5.80;99.90
2647;DHT22;1333;50.958;6.770;2024-03-23T06:04:49;5.80;99.90
2647;DHT22;1333;50.958;6.770;2024-03-23T06:07:15;5.80;99.90
2647;DHT22;1333;50.958;6.770;2024-03-23T06:09:41;5.80;99.90
2647;DHT22;1333;50.958;6.770;2024-03-23T06:12:07;5.80;99.90
2647;DHT22;1333;50.958;6.770;2024-03-23T06:14:33;5.70;99.90
2647;DHT22;1333;50.958;6.770;2024-03-23T06:16:59;5.70;99.90
2647;DHT22;1333;50.958;6.770;2024-03-23T06:19:25;5.80;99.90
2647;DHT22;1333;50.958;6.770;2024-03-23T06:21:56;5.80;99.90
2647;DHT22;1333;50.958;6.770;2024-03-23T06:24:24;5.80;99.90
2647;DHT22;1333;50.958;6.770;2024-03-23T06:26:49;6.00;99.90
2647;DHT22;1333;50.958;6.770;2024-03-23T06:29:15;6.30;99.90
2647;DHT22;1333;50.958;6.770;2024-03-23T06:31:41;6.60;99.90
2647;DHT22;1333;50.958;6.770;2024-03-23T06:34:06;6.80;99.90
2647;DHT22;1333;50.958;6.770;2024-03-23T06:36:32;7.10;99.90
2647;DHT22;1333;50.958;6.770;2024-03-23T06:38:58;7.40;99.90
2647;DHT22;1333;50.958;6.770;2024-03-23T06:41:24;7.70;99.90
2647;DHT22;1333;50.958;6.770;2024-03-23T06:43:50;7.90;99.90
2647;DHT22;1333;50.958;6.770;2024-03-23T06:46:15;8.40;99.90
2647;DHT22;1333;50.958;6.770;2024-03-23T06:48:41;8.50;99.90
2647;DHT22;1333;50.958;6.770;2024-03-23T06:51:06;8.80;99.90
2647;DHT22;1333;50.958;6.770;2024-03-23T06:53:32;8.70;99.90
2647;DHT22;1333;50.958;6.770;2024-03-23T06:55:58;8.60;99.90
2647;DHT22;1333;50.958;6.770;2024-03-23T06:58:24;8.70;99.90
2647;DHT22;1333;50.958;6.770;2024-03-23T07:00:50;8.60;99.90
2647;DHT22;1333;50.958;6.770;2024-03-23T07:03:17;8.60;99.90
2647;DHT22;1333;50.958;6.770;2024-03-23T07:05:42;8.50;99.90
2647;DHT22;1333;50.958;6.770;2024-03-23T07:08:08;8.50;99.90
2647;DHT22;1333;50.958;6.770;2024-03-23T07:10:34;8.70;99.90
2647;DHT22;1333;50.958;6.770;2024-03-23T07:12:59;8.70;99.90
2647;DHT22;1333;50.958;6.770;2024-03-23T07:15:25;8.70;99.90
2647;DHT22;1333;50.958;6.770;2024-03-23T07:17:50;8.90;99.90
2647;DHT22;1333;50.958;6.770;2024-03-23T07:20:16;9.00;99.90
2647;DHT22;1333;50.958;6.770;2024-03-23T07:22:42;9.40;99.90
2647;DHT22;1333;50.958;6.770;2024-03-23T07:25:07;10.60;99.90
2647;DHT22;1333;50.958;6.770;2024-03-23T07:27:33;12.00;99.90
2647;DHT22;1333;50.958;6.770;2024-03-23T07:29:59;13.40;99.90
2647;DHT22;1333;50.958;6.770;2024-03-23T07:32:26;14.70;99.90
2647;DHT22;1333;50.958;6.770;2024-03-23T07:34:52;15.40;99.90
2647;DHT22;1333;50.958;6.770;2024-03-23T07:37:17;16.30;99.90
2647;DHT22;1333;50.958;6.770;2024-03-23T07:39:43;17.40;99.90
2647;DHT22;1333;50.958;6.770;2024-03-23T07:42:08;17.60;99.90
2647;DHT22;1333;50.958;6.770;2024-03-23T07:44:34;18.00;99.00
2647;DHT22;1333;50.958;6.770;2024-03-23T07:47:03;17.80;92.60
2647;DHT22;1333;50.958;6.770;2024-03-23T07:49:28;16.60;90.90
2647;DHT22;1333;50.958;6.770;2024-03-23T07:51:54;17.00;99.90
2647;DHT22;1333;50.958;6.770;2024-03-23T07:54:19;17.10;93.60
2647;DHT22;1333;50.958;6.770;2024-03-23T07:56:45;17.50;85.90
2647;DHT22;1333;50.958;6.770;2024-03-23T07:59:10;17.80;79.70
2647;DHT22;1333;50.958;6.770;2024-03-23T08:01:36;18.10;75.80
2647;DHT22;1333;50.958;6.770;2024-03-23T08:04:02;18.50;60.00
2647;DHT22;1333;50.958;6.770;2024-03-23T08:06:27;19.20;57.50
2647;DHT22;1333;50.958;6.770;2024-03-23T08:08:55;20.60;56.80
2647;DHT22;1333;50.958;6.770;2024-03-23T08:11:28;21.90;52.10
2647;DHT22;1333;50.958;6.770;2024-03-23T08:13:54;23.20;48.40
2647;DHT22;1333;50.958;6.770;2024-03-23T08:16:20;24.50;44.50
2647;DHT22;1333;50.958;6.770;2024-03-23T08:18:46;24.50;36.60
2647;DHT22;1333;50.958;6.770;2024-03-23T08:21:12;25.40;36.70
2647;DHT22;1333;50.958;6.770;2024-03-23T08:23:38;25.40;34.00
2647;DHT22;1333;50.958;6.770;2024-03-23T08:26:09;25.60;34.30
2647;DHT22;1333;50.958;6.770;2024-03-23T08:28:36;25.90;33.60
2647;DHT22;1333;50.958;6.770;2024-03-23T08:31:04;26.00;32.70
2647;DHT22;1333;50.958;6.770;2024-03-23T08:33:30;26.60;33.50
2647;DHT22;1333;50.958;6.770;2024-03-23T08:36:00;26.80;32.10
2647;DHT22;1333;50.958;6.770;2024-03-23T08:38:28;26.60;32.50
2647;DHT22;1333;50.958;6.770;2024-03-23T08:41:01;26.80;32.70
2647;DHT22;1333;50.958;6.770;2024-03-23T08:43:35;27.50;33.50
2647;DHT22;1333;50.958;6.770;2024-03-23T08:46:04;28.00;33.00
2647;DHT22;1333;50.958;6.770;2024-03-23T08:48:31;27.30;30.30
2647;DHT22;1333;50.958;6.770;2024-03-23T08:51:01;24.20;30.40
2647;DHT22;1333;50.958;6.770;2024-03-23T08:53:30;23.50;33.20
2647;DHT22;1333;50.958;6.770;2024-03-23T08:55:59;22.80;34.90
2647;DHT22;1333;50.958;6.770;2024-03-23T08:58:27;22.20;36.10
2647;DHT22;1333;50.958;6.770;2024-03-23T09:00:54;22.60;38.50
2647;DHT22;1333;50.958;6.770;2024-03-23T09:03:25;22.50;38.60
2647;DHT22;1333;50.958;6.770;2024-03-23T09:05:51;23.30;39.10
2647;DHT22;1333;50.958;6.770;2024-03-23T09:08:17;22.40;37.10
2647;DHT22;1333;50.958;6.770;2024-03-23T09:10:43;20.90;36.90
2647;DHT22;1333;50.958;6.770;2024-03-23T09:13:09;19.70;37.70
2647;DHT22;1333;50.958;6.770;2024-03-23T09:15:36;18.20;38.60
2647;DHT22;1333;50.958;6.770;2024-03-23T09:18:04;16.90;40.30
2647;DHT22;1333;50.958;6.770;2024-03-23T09:20:33;16.90;43.20
2647;DHT22;1333;50.958;6.770;2024-03-23T09:22:59;18.70;45.40
2647;DHT22;1333;50.958;6.770;2024-03-23T09:25:24;21.70;45.80
2647;DHT22;1333;50.958;6.770;2024-03-23T09:27:50;22.80;40.40
2647;DHT22;1333;50.958;6.770;2024-03-23T09:30:16;23.00;38.50
2647;DHT22;1333;50.958;6.770;2024-03-23T09:32:45;24.40;38.00
2647;DHT22;1333;50.958;6.770;2024-03-23T09:35:11;26.40;36.10
2647;DHT22;1333;50.958;6.770;2024-03-23T09:37:40;27.60;32.60
2647;DHT22;1333;50.958;6.770;2024-03-23T09:40:10;26.60;29.60
2647;DHT22;1333;50.958;6.770;2024-03-23T09:42:39;25.60;30.80
2647;DHT22;1333;50.958;6.770;2024-03-23T09:45:06;25.20;30.90
2647;DHT22;1333;50.958;6.770;2024-03-23T09:47:34;24.80;31.70
2647;DHT22;1333;50.958;6.770;2024-03-23T09:50:01;26.30;31.90
2647;DHT22;1333;50.958;6.770;2024-03-23T09:52:26;26.20;29.90
2647;DHT22;1333;50.958;6.770;2024-03-23T09:54:52;24.60;28.90
2647;DHT22;1333;50.958;6.770;2024-03-23T09:57:17;23.10;29.90
2647;DHT22;1333;50.958;6.770;2024-03-23T09:59:43;24.30;32.90
2647;DHT22;1333;50.958;6.770;2024-03-23T10:02:09;24.70;31.60
2647;DHT22;1333;50.958;6.770;2024-03-23T10:04:40;24.70;31.60
2647;DHT22;1333;50.958;6.770;2024-03-23T10:07:19;25.30;31.80
2647;DHT22;1333;50.958;6.770;2024-03-23T10:09:45;26.60;32.10
2647;DHT22;1333;50.958;6.770;2024-03-23T10:12:16;26.90;31.00
2647;DHT22;1333;50.958;6.770;2024-03-23T10:14:43;27.10;31.10
2647;DHT22;1333;50.958;6.770;2024-03-23T10:19:43;26.90;30.20
2647;DHT22;1333;50.958;6.770;2024-03-23T10:22:10;25.50;29.60
2647;DHT22;1333;50.958;6.770;2024-03-23T10:24:35;23.70;29.70
2647;DHT22;1333;50.958;6.770;2024-03-23T10:27:01;21.50;30.00
2647;DHT22;1333;50.958;6.770;2024-03-23T10:29:26;19.60;30.40
2647;DHT22;1333;50.958;6.770;2024-03-23T10:31:53;18.00;31.50
2647;DHT22;1333;50.958;6.770;2024-03-23T10:34:26;16.70;33.30
2647;DHT22;1333;50.958;6.770;2024-03-23T10:36:53;15.90;35.50
2647;DHT22;1333;50.958;6.770;2024-03-23T10:39:21;14.80;37.40
2647;DHT22;1333;50.958;6.770;2024-03-23T10:41:52;14.60;39.50
2647;DHT22;1333;50.958;6.770;2024-03-23T10:44:19;15.90;41.90
2647;DHT22;1333;50.958;6.770;2024-03-23T10:46:45;17.40;43.00
2647;DHT22;1333;50.958;6.770;2024-03-23T10:49:11;19.40;43.20
2647;DHT22;1333;50.958;6.770;2024-03-23T10:51:39;19.90;41.10
2647;DHT22;1333;50.958;6.770;2024-03-23T10:54:05;18.90;38.90
2647;DHT22;1333;50.958;6.770;2024-03-23T10:56:34;16.40;37.80
2647;DHT22;1333;50.958;6.770;2024-03-23T10:59:02;15.80;40.40
2647;DHT22;1333;50.958;6.770;2024-03-23T11:01:31;18.20;44.50
2647;DHT22;1333;50.958;6.770;2024-03-23T11:03:56;22.20;45.80
2647;DHT22;1333;50.958;6.770;2024-03-23T11:06:38;25.80;42.00
2647;DHT22;1333;50.958;6.770;2024-03-23T11:14:50;30.20;30.50
2647;DHT22;1333;50.958;6.770;2024-03-23T11:17:23;28.40;28.90
2647;DHT22;1333;50.958;6.770;2024-03-23T11:20:02;26.10;28.60
2647;DHT22;1333;50.958;6.770;2024-03-23T11:25:25;21.80;30.00
2647;DHT22;1333;50.958;6.770;2024-03-23T11:27:51;20.10;31.70
2647;DHT22;1333;50.958;6.770;2024-03-23T11:30:21;20.60;36.10
2647;DHT22;1333;50.958;6.770;2024-03-23T11:32:51;24.00;40.20
2647;DHT22;1333;50.958;6.770;2024-03-23T11:35:32;26.20;37.70
2647;DHT22;1333;50.958;6.770;2024-03-23T11:38:09;25.40;34.10
2647;DHT22;1333;50.958;6.770;2024-03-23T11:40:36;24.00;33.40
2647;DHT22;1333;50.958;6.770;2024-03-23T11:43:07;22.80;34.60
2647;DHT22;1333;50.958;6.770;2024-03-23T11:45:42;22.00;35.20
2647;DHT22;1333;50.958;6.770;2024-03-23T11:48:15;21.00;35.70
2647;DHT22;1333;50.958;6.770;2024-03-23T11:50:42;19.60;36.10
2647;DHT22;1333;50.958;6.770;2024-03-23T11:55:51;16.90;37.30
2647;DHT22;1333;50.958;6.770;2024-03-23T11:58:18;15.90;37.90
2647;DHT22;1333;50.958;6.770;2024-03-23T12:03:27;14.40;39.80
2647;DHT22;1333;50.958;6.770;2024-03-23T12:05:57;13.90;40.70
2647;DHT22;1333;50.958;6.770;2024-03-23T12:11:05;18.80;46.80
2647;DHT22;1333;50.958;6.770;2024-03-23T12:13:31;22.70;43.90
2647;DHT22;1333;50.958;6.770;2024-03-23T12:18:34;20.20;35.30
2647;DHT22;1333;50.958;6.770;2024-03-23T12:21:00;18.60;36.10
2647;DHT22;1333;50.958;6.770;2024-03-23T12:23:25;17.80;38.20
2647;DHT22;1333;50.958;6.770;2024-03-23T12:25:51;18.00;40.00
2647;DHT22;1333;50.958;6.770;2024-03-23T12:28:16;17.70;40.70
2647;DHT22;1333;50.958;6.770;2024-03-23T12:30:42;17.40;41.60
2647;DHT22;1333;50.958;6.770;2024-03-23T12:33:07;16.60;41.40
2647;DHT22;1333;50.958;6.770;2024-03-23T12:35:33;15.40;41.20
2647;DHT22;1333;50.958;6.770;2024-03-23T12:37:59;14.60;42.20
2647;DHT22;1333;50.958;6.770;2024-03-23T12:40:24;14.40;43.90
2647;DHT22;1333;50.958;6.770;2024-03-23T12:42:50;14.40;45.30
2647;DHT22;1333;50.958;6.770;2024-03-23T12:45:16;14.40;46.80
2647;DHT22;1333;50.958;6.770;2024-03-23T12:47:41;15.10;48.40
2647;DHT22;1333;50.958;6.770;2024-03-23T12:50:07;16.90;50.80
2647;DHT22;1333;50.958;6.770;2024-03-23T12:52:33;21.00;50.90
2647;DHT22;1333;50.958;6.770;2024-03-23T12:54:59;25.20;45.90
2647;DHT22;1333;50.958;6.770;2024-03-23T12:57:25;29.00;40.00
2647;DHT22;1333;50.958;6.770;2024-03-23T12:59:54;32.10;34.60
2647;DHT22;1333;50.958;6.770;2024-03-23T13:02:20;34.00;29.80
2647;DHT22;1333;50.958;6.770;2024-03-23T13:04:49;33.40;26.30
2647;DHT22;1333;50.958;6.770;2024-03-23T13:07:14;30.60;24.10
2647;DHT22;1333;50.958;6.770;2024-03-23T13:09:40;28.50;25.10
2647;DHT22;1333;50.958;6.770;2024-03-23T13:12:06;26.70;26.00
2647;DHT22;1333;50.958;6.770;2024-03-23T13:14:31;24.70;26.70
2647;DHT22;1333;50.958;6.770;2024-03-23T13:16:57;23.80;28.70
2647;DHT22;1333;50.958;6.770;2024-03-23T13:19:23;25.20;30.70
2647;DHT22;1333;50.958;6.770;2024-03-23T13:21:53;27.30;31.00
2647;DHT22;1333;50.958;6.770;2024-03-23T13:24:22;27.30;29.30
2647;DHT22;1333;50.958;6.770;2024-03-23T13:26:47;26.90;28.50
2647;DHT22;1333;50.958;6.770;2024-03-23T13:29:13;27.60;29.10
2647;DHT22;1333;50.958;6.770;2024-03-23T13:31:38;27.20;28.00
2647;DHT22;1333;50.958;6.770;2024-03-23T13:34:04;27.50;28.30
2647;DHT22;1333;50.958;6.770;2024-03-23T13:36:29;27.00;27.90
2647;DHT22;1333;50.958;6.770;2024-03-23T13:38:55;27.30;28.20
2647;DHT22;1333;50.958;6.770;2024-03-23T13:41:20;26.60;27.30
2647;DHT22;1333;50.958;6.770;2024-03-23T13:43:46;24.30;27.20
2647;DHT22;1333;50.958;6.770;2024-03-23T13:46:11;22.30;27.70
2647;DHT22;1333;50.958;6.770;2024-03-23T13:48:37;20.20;28.10
2647;DHT22;1333;50.958;6.770;2024-03-23T13:51:04;18.60;29.00
2647;DHT22;1333;50.958;6.770;2024-03-23T13:53:30;17.10;30.00
2647;DHT22;1333;50.958;6.770;2024-03-23T13:55:56;15.80;31.40
2647;DHT22;1333;50.958;6.770;2024-03-23T13:58:22;14.70;33.20
2647;DHT22;1333;50.958;6.770;2024-03-23T14:00:49;13.70;34.90
2647;DHT22;1333;50.958;6.770;2024-03-23T14:03:14;12.70;36.00
2647;DHT22;1333;50.958;6.770;2024-03-23T14:05:40;13.10;38.30
2647;DHT22;1333;50.958;6.770;2024-03-23T14:08:07;14.20;40.70
2647;DHT22;1333;50.958;6.770;2024-03-23T14:10:32;16.00;42.80
2647;DHT22;1333;50.958;6.770;2024-03-23T14:12:58;17.10;42.10
2647;DHT22;1333;50.958;6.770;2024-03-23T14:15:26;18.90;41.30
2647;DHT22;1333;50.958;6.770;2024-03-23T14:17:52;20.60;39.50
2647;DHT22;1333;50.958;6.770;2024-03-23T14:20:17;22.50;37.90
2647;DHT22;1333;50.958;6.770;2024-03-23T14:22:43;23.90;35.40
2647;DHT22;1333;50.958;6.770;2024-03-23T14:25:09;25.40;33.40
2647;DHT22;1333;50.958;6.770;2024-03-23T14:27:35;27.00;31.70
2647;DHT22;1333;50.958;6.770;2024-03-23T14:30:04;27.00;28.90
2647;DHT22;1333;50.958;6.770;2024-03-23T14:32:30;25.50;28.10
2647;DHT22;1333;50.958;6.770;2024-03-23T14:35:02;23.90;28.30
2647;DHT22;1333;50.958;6.770;2024-03-23T14:37:27;22.10;28.70
2647;DHT22;1333;50.958;6.770;2024-03-23T14:39:55;20.40;29.60
2647;DHT22;1333;50.958;6.770;2024-03-23T14:42:22;18.80;31.10
2647;DHT22;1333;50.958;6.770;2024-03-23T14:44:47;17.20;33.00
2647;DHT22;1333;50.958;6.770;2024-03-23T14:47:13;15.70;34.40
2647;DHT22;1333;50.958;6.770;2024-03-23T14:49:38;14.30;35.70
2647;DHT22;1333;50.958;6.770;2024-03-23T14:52:04;13.10;37.00
2647;DHT22;1333;50.958;6.770;2024-03-23T14:54:29;12.30;38.50
2647;DHT22;1333;50.958;6.770;2024-03-23T14:56:55;11.10;39.90
2647;DHT22;1333;50.958;6.770;2024-03-23T14:59:24;10.50;42.30
2647;DHT22;1333;50.958;6.770;2024-03-23T15:01:49;9.90;46.70
2647;DHT22;1333;50.958;6.770;2024-03-23T15:04:15;9.30;54.40
2647;DHT22;1333;50.958;6.770;2024-03-23T15:06:40;8.90;83.10
2647;DHT22;1333;50.958;6.770;2024-03-23T15:09:07;8.80;99.90
2647;DHT22;1333;50.958;6.770;2024-03-23T15:11:36;9.70;99.90
2647;DHT22;1333;50.958;6.770;2024-03-23T15:14:02;11.90;99.90
2647;DHT22;1333;50.958;6.770;2024-03-23T15:16:27;13.10;99.90
2647;DHT22;1333;50.958;6.770;2024-03-23T15:18:53;13.00;94.20
2647;DHT22;1333;50.958;6.770;2024-03-23T15:21:18;12.40;95.30
2647;DHT22;1333;50.958;6.770;2024-03-23T15:23:46;12.00;99.90
2647;DHT22;1333;50.958;6.770;2024-03-23T15:26:13;12.30;99.90
2647;DHT22;1333;50.958;6.770;2024-03-23T15:28:38;13.10;99.90
2647;DHT22;1333;50.958;6.770;2024-03-23T15:31:18;13.50;99.90
2647;DHT22;1333;50.958;6.770;2024-03-23T15:33:44;13.30;95.30
2647;DHT22;1333;50.958;6.770;2024-03-23T15:36:09;12.90;96.70
2647;DHT22;1333;50.958;6.770;2024-03-23T15:38:35;12.30;95.60
2647;DHT22;1333;50.958;6.770;2024-03-23T15:41:00;12.10;97.10
2647;DHT22;1333;50.958;6.770;2024-03-23T15:43:26;11.80;99.90
2647;DHT22;1333;50.958;6.770;2024-03-23T15:45:59;11.70;99.90
2647;DHT22;1333;50.958;6.770;2024-03-23T15:48:29;11.30;99.90
2647;DHT22;1333;50.958;6.770;2024-03-23T15:50:59;11.20;99.90
2647;DHT22;1333;50.958;6.770;2024-03-23T15:53:26;11.10;99.90
2647;DHT22;1333;50.958;6.770;2024-03-23T15:58:21;10.50;99.90
2647;DHT22;1333;50.958;6.770;2024-03-23T16:01:14;10.50;99.90
2647;DHT22;1333;50.958;6.770;2024-03-23T16:03:39;10.40;99.90
2647;DHT22;1333;50.958;6.770;2024-03-23T16:06:06;10.10;99.90
2647;DHT22;1333;50.958;6.770;2024-03-23T16:08:35;9.70;99.90
2647;DHT22;1333;50.958;6.770;2024-03-23T16:11:05;9.30;99.90
2647;DHT22;1333;50.958;6.770;2024-03-23T16:13:31;9.20;99.90
2647;DHT22;1333;50.958;6.770;2024-03-23T16:15:58;8.80;99.90
2647;DHT22;1333;50.958;6.770;2024-03-23T16:18:24;8.80;99.90
2647;DHT22;1333;50.958;6.770;2024-03-23T16:20:55;8.70;99.90
2647;DHT22;1333;50.958;6.770;2024-03-23T16:23:20;8.90;99.90
2647;DHT22;1333;50.958;6.770;2024-03-23T16:25:50;9.10;99.90
2647;DHT22;1333;50.958;6.770;2024-03-23T16:28:36;9.10;99.90
2647;DHT22;1333;50.958;6.770;2024-03-23T16:31:04;8.90;99.90
2647;DHT22;1333;50.958;6.770;2024-03-23T16:33:31;8.50;99.90
2647;DHT22;1333;50.958;6.770;2024-03-23T16:35:58;8.50;99.90
2647;DHT22;1333;50.958;6.770;2024-03-23T16:38:25;8.40;99.90
2647;DHT22;1333;50.958;6.770;2024-03-23T16:40:58;8.20;99.90
2647;DHT22;1333;50.958;6.770;2024-03-23T16:43:25;8.10;99.90
2647;DHT22;1333;50.958;6.770;2024-03-23T16:46:04;8.00;99.90
2647;DHT22;1333;50.958;6.770;2024-03-23T16:48:30;8.00;99.90
2647;DHT22;1333;50.958;6.770;2024-03-23T16:50:57;7.80;99.90
2647;DHT22;1333;50.958;6.770;2024-03-23T16:53:23;7.70;99.90
2647;DHT22;1333;50.958;6.770;2024-03-23T16:56:01;7.60;99.90
2647;DHT22;1333;50.958;6.770;2024-03-23T16:58:28;7.40;99.90
2647;DHT22;1333;50.958;6.770;2024-03-23T17:01:05;7.50;99.90
2647;DHT22;1333;50.958;6.770;2024-03-23T17:03:34;7.30;99.90
2647;DHT22;1333;50.958;6.770;2024-03-23T17:06:04;7.20;99.90
2647;DHT22;1333;50.958;6.770;2024-03-23T17:08:30;7.20;99.90
2647;DHT22;1333;50.958;6.770;2024-03-23T17:11:03;7.00;99.90
2647;DHT22;1333;50.958;6.770;2024-03-23T17:13:31;7.00;99.90
2647;DHT22;1333;50.958;6.770;2024-03-23T17:15:56;6.90;99.90
2647;DHT22;1333;50.958;6.770;2024-03-23T17:18:22;6.70;99.90
2647;DHT22;1333;50.958;6.770;2024-03-23T17:20:47;6.60;99.90
2647;DHT22;1333;50.958;6.770;2024-03-23T17:23:13;6.50;99.90
2647;DHT22;1333;50.958;6.770;2024-03-23T17:25:39;6.50;99.90